sensor_id;sensor_type;location;lat;lon;timestamp;P1;durP1;ratioP1;P2;durP2;ratioP2
77430;SDS011;66498;48.564;19.272;2023-07-20T00:00:16;13.48;;;7.32;;
77430;SDS011;66498;48.564;19.272;2023-07-20T00:02:42;9.98;;;6.45;;
77430;SDS011;66498;48.564;19.272;2023-07-20T00:05:08;9.15;;;6.60;;
77430;SDS011;66498;48.564;19.272;2023-07-20T00:07:33;10.15;;;6.75;;
77430;SDS011;66498;48.564;19.272;2023-07-20T00:09:59;9.93;;;6.78;;
77430;SDS011;66498;48.564;19.272;2023-07-20T00:12:24;12.07;;;6.85;;
77430;SDS011;66498;48.564;19.272;2023-07-20T00:14:50;9.35;;;6.40;;
77430;SDS011;66498;48.564;19.272;2023-07-20T00:17:18;9.60;;;6.63;;
77430;SDS011;66498;48.564;19.272;2023-07-20T00:19:44;11.02;;;6.88;;
77430;SDS011;66498;48.564;19.272;2023-07-20T00:22:09;11.35;;;6.68;;
77430;SDS011;66498;48.564;19.272;2023-07-20T00:24:34;12.15;;;6.53;;
77430;SDS011;66498;48.564;19.272;2023-07-20T00:27:00;9.00;;;6.57;;
77430;SDS011;66498;48.564;19.272;2023-07-20T00:29:26;13.30;;;6.47;;
77430;SDS011;66498;48.564;19.272;2023-07-20T00:31:51;7.97;;;6.13;;
77430;SDS011;66498;48.564;19.272;2023-07-20T00:34:17;12.25;;;6.40;;
77430;SDS011;66498;48.564;19.272;2023-07-20T00:36:42;10.50;;;6.15;;
77430;SDS011;66498;48.564;19.272;2023-07-20T00:39:08;8.93;;;5.82;;
77430;SDS011;66498;48.564;19.272;2023-07-20T00:41:33;7.75;;;5.57;;
77430;SDS011;66498;48.564;19.272;2023-07-20T00:43:59;9.95;;;5.68;;
77430;SDS011;66498;48.564;19.272;2023-07-20T00:46:25;11.32;;;5.90;;
77430;SDS011;66498;48.564;19.272;2023-07-20T00:48:50;9.00;;;5.70;;
77430;SDS011;66498;48.564;19.272;2023-07-20T00:51:17;8.15;;;5.18;;
77430;SDS011;66498;48.564;19.272;2023-07-20T00:53:43;8.27;;;5.88;;
77430;SDS011;66498;48.564;19.272;2023-07-20T00:56:09;9.57;;;5.65;;
77430;SDS011;66498;48.564;19.272;2023-07-20T00:58:34;12.15;;;5.30;;
77430;SDS011;66498;48.564;19.272;2023-07-20T01:01:00;10.30;;;6.35;;
77430;SDS011;66498;48.564;19.272;2023-07-20T01:03:26;9.38;;;6.88;;
77430;SDS011;66498;48.564;19.272;2023-07-20T01:05:59;8.25;;;6.22;;
77430;SDS011;66498;48.564;19.272;2023-07-20T01:08:40;10.45;;;6.80;;
77430;SDS011;66498;48.564;19.272;2023-07-20T01:11:16;11.48;;;6.95;;
77430;SDS011;66498;48.564;19.272;2023-07-20T01:13:44;8.70;;;6.65;;
77430;SDS011;66498;48.564;19.272;2023-07-20T01:16:11;11.25;;;6.93;;
77430;SDS011;66498;48.564;19.272;2023-07-20T01:18:36;10.90;;;7.10;;
77430;SDS011;66498;48.564;19.272;2023-07-20T01:21:13;11.23;;;7.45;;
77430;SDS011;66498;48.564;19.272;2023-07-20T01:26:33;11.48;;;7.00;;
77430;SDS011;66498;48.564;19.272;2023-07-20T01:29:21;10.45;;;7.20;;
77430;SDS011;66498;48.564;19.272;2023-07-20T01:32:16;11.77;;;7.03;;
77430;SDS011;66498;48.564;19.272;2023-07-20T01:34:43;10.80;;;6.95;;
77430;SDS011;66498;48.564;19.272;2023-07-20T01:37:09;11.85;;;6.57;;
77430;SDS011;66498;48.564;19.272;2023-07-20T01:39:36;10.15;;;6.57;;
77430;SDS011;66498;48.564;19.272;2023-07-20T01:42:04;10.20;;;6.65;;
77430;SDS011;66498;48.564;19.272;2023-07-20T01:44:29;11.10;;;7.28;;
77430;SDS011;66498;48.564;19.272;2023-07-20T01:46:55;9.02;;;6.25;;
77430;SDS011;66498;48.564;19.272;2023-07-20T01:49:20;10.60;;;7.28;;
77430;SDS011;66498;48.564;19.272;2023-07-20T01:51:46;8.98;;;6.80;;
77430;SDS011;66498;48.564;19.272;2023-07-20T01:54:11;9.90;;;6.50;;
77430;SDS011;66498;48.564;19.272;2023-07-20T01:56:37;11.73;;;6.90;;
77430;SDS011;66498;48.564;19.272;2023-07-20T01:59:03;11.02;;;6.80;;
77430;SDS011;66498;48.564;19.272;2023-07-20T02:01:30;10.70;;;6.85;;
77430;SDS011;66498;48.564;19.272;2023-07-20T02:03:56;10.82;;;6.38;;
77430;SDS011;66498;48.564;19.272;2023-07-20T02:06:21;11.32;;;6.47;;
77430;SDS011;66498;48.564;19.272;2023-07-20T02:08:47;10.07;;;6.82;;
77430;SDS011;66498;48.564;19.272;2023-07-20T02:11:12;13.60;;;6.50;;
77430;SDS011;66498;48.564;19.272;2023-07-20T02:13:38;10.82;;;6.68;;
77430;SDS011;66498;48.564;19.272;2023-07-20T02:16:04;9.25;;;6.90;;
77430;SDS011;66498;48.564;19.272;2023-07-20T02:18:30;12.15;;;7.30;;
77430;SDS011;66498;48.564;19.272;2023-07-20T02:20:55;8.90;;;6.43;;
77430;SDS011;66498;48.564;19.272;2023-07-20T02:23:21;9.10;;;6.70;;
77430;SDS011;66498;48.564;19.272;2023-07-20T02:25:46;9.68;;;6.68;;
77430;SDS011;66498;48.564;19.272;2023-07-20T02:28:13;11.60;;;7.07;;
77430;SDS011;66498;48.564;19.272;2023-07-20T02:30:39;9.68;;;6.80;;
77430;SDS011;66498;48.564;19.272;2023-07-20T02:33:05;12.30;;;7.47;;
77430;SDS011;66498;48.564;19.272;2023-07-20T02:35:31;11.82;;;7.22;;
77430;SDS011;66498;48.564;19.272;2023-07-20T02:37:57;9.93;;;7.03;;
77430;SDS011;66498;48.564;19.272;2023-07-20T02:40:22;9.63;;;6.28;;
77430;SDS011;66498;48.564;19.272;2023-07-20T02:42:48;10.35;;;6.40;;
77430;SDS011;66498;48.564;19.272;2023-07-20T02:45:14;10.32;;;6.30;;
77430;SDS011;66498;48.564;19.272;2023-07-20T02:47:40;8.23;;;6.35;;
77430;SDS011;66498;48.564;19.272;2023-07-20T02:50:06;11.25;;;7.10;;
77430;SDS011;66498;48.564;19.272;2023-07-20T02:52:33;9.57;;;6.45;;
77430;SDS011;66498;48.564;19.272;2023-07-20T02:54:58;10.05;;;5.97;;
77430;SDS011;66498;48.564;19.272;2023-07-20T02:57:24;6.82;;;5.60;;
77430;SDS011;66498;48.564;19.272;2023-07-20T02:59:49;11.15;;;6.00;;
77430;SDS011;66498;48.564;19.272;2023-07-20T03:02:15;9.70;;;6.20;;
77430;SDS011;66498;48.564;19.272;2023-07-20T03:04:40;7.88;;;5.63;;
77430;SDS011;66498;48.564;19.272;2023-07-20T03:07:05;10.02;;;6.30;;
77430;SDS011;66498;48.564;19.272;2023-07-20T03:09:32;10.48;;;6.30;;
77430;SDS011;66498;48.564;19.272;2023-07-20T03:11:58;8.77;;;6.13;;
77430;SDS011;66498;48.564;19.272;2023-07-20T03:14:23;10.35;;;6.15;;
77430;SDS011;66498;48.564;19.272;2023-07-20T03:16:49;9.57;;;6.45;;
77430;SDS011;66498;48.564;19.272;2023-07-20T03:19:14;8.45;;;5.95;;
77430;SDS011;66498;48.564;19.272;2023-07-20T03:21:40;8.93;;;6.10;;
77430;SDS011;66498;48.564;19.272;2023-07-20T03:24:07;8.90;;;6.32;;
77430;SDS011;66498;48.564;19.272;2023-07-20T03:26:33;9.13;;;6.50;;
77430;SDS011;66498;48.564;19.272;2023-07-20T03:28:59;10.60;;;6.80;;
77430;SDS011;66498;48.564;19.272;2023-07-20T03:31:25;8.50;;;6.53;;
77430;SDS011;66498;48.564;19.272;2023-07-20T03:33:51;11.55;;;6.85;;
77430;SDS011;66498;48.564;19.272;2023-07-20T03:36:17;12.23;;;7.18;;
77430;SDS011;66498;48.564;19.272;2023-07-20T03:38:43;10.95;;;7.47;;
77430;SDS011;66498;48.564;19.272;2023-07-20T03:41:08;10.93;;;7.75;;
77430;SDS011;66498;48.564;19.272;2023-07-20T03:43:34;11.23;;;7.75;;
77430;SDS011;66498;48.564;19.272;2023-07-20T03:46:00;13.05;;;7.63;;
77430;SDS011;66498;48.564;19.272;2023-07-20T03:48:26;13.95;;;7.53;;
77430;SDS011;66498;48.564;19.272;2023-07-20T03:50:53;11.15;;;7.40;;
77430;SDS011;66498;48.564;19.272;2023-07-20T03:53:19;10.43;;;7.28;;
77430;SDS011;66498;48.564;19.272;2023-07-20T03:55:45;12.80;;;7.60;;
77430;SDS011;66498;48.564;19.272;2023-07-20T03:58:12;10.52;;;7.60;;
77430;SDS011;66498;48.564;19.272;2023-07-20T04:00:38;10.10;;;7.45;;
77430;SDS011;66498;48.564;19.272;2023-07-20T04:03:04;11.52;;;7.43;;
77430;SDS011;66498;48.564;19.272;2023-07-20T04:05:30;10.30;;;7.80;;
77430;SDS011;66498;48.564;19.272;2023-07-20T04:07:56;13.32;;;8.32;;
77430;SDS011;66498;48.564;19.272;2023-07-20T04:10:21;11.60;;;8.15;;
77430;SDS011;66498;48.564;19.272;2023-07-20T04:12:47;13.13;;;8.20;;
77430;SDS011;66498;48.564;19.272;2023-07-20T04:15:13;11.68;;;8.55;;
77430;SDS011;66498;48.564;19.272;2023-07-20T04:17:39;11.73;;;8.13;;
77430;SDS011;66498;48.564;19.272;2023-07-20T04:20:06;10.77;;;8.27;;
77430;SDS011;66498;48.564;19.272;2023-07-20T04:22:32;9.60;;;7.38;;
77430;SDS011;66498;48.564;19.272;2023-07-20T04:24:58;11.07;;;7.82;;
77430;SDS011;66498;48.564;19.272;2023-07-20T04:27:23;12.13;;;8.43;;
77430;SDS011;66498;48.564;19.272;2023-07-20T04:29:49;12.63;;;7.88;;
77430;SDS011;66498;48.564;19.272;2023-07-20T04:32:14;12.18;;;7.68;;
77430;SDS011;66498;48.564;19.272;2023-07-20T04:34:40;11.75;;;7.38;;
77430;SDS011;66498;48.564;19.272;2023-07-20T04:37:05;10.43;;;7.35;;
77430;SDS011;66498;48.564;19.272;2023-07-20T04:39:31;9.27;;;7.15;;
77430;SDS011;66498;48.564;19.272;2023-07-20T04:41:57;10.75;;;7.22;;
77430;SDS011;66498;48.564;19.272;2023-07-20T04:44:23;11.18;;;6.82;;
77430;SDS011;66498;48.564;19.272;2023-07-20T04:46:48;9.73;;;7.28;;
77430;SDS011;66498;48.564;19.272;2023-07-20T04:49:14;13.15;;;7.65;;
77430;SDS011;66498;48.564;19.272;2023-07-20T04:51:39;12.38;;;7.32;;
77430;SDS011;66498;48.564;19.272;2023-07-20T04:54:05;12.80;;;7.57;;
77430;SDS011;66498;48.564;19.272;2023-07-20T04:56:30;12.57;;;8.02;;
77430;SDS011;66498;48.564;19.272;2023-07-20T04:58:56;17.05;;;7.70;;
77430;SDS011;66498;48.564;19.272;2023-07-20T05:01:22;13.27;;;7.20;;
77430;SDS011;66498;48.564;19.272;2023-07-20T05:03:48;12.20;;;7.63;;
77430;SDS011;66498;48.564;19.272;2023-07-20T05:06:14;12.77;;;7.47;;
77430;SDS011;66498;48.564;19.272;2023-07-20T05:08:40;12.88;;;7.93;;
77430;SDS011;66498;48.564;19.272;2023-07-20T05:11:05;16.50;;;8.90;;
77430;SDS011;66498;48.564;19.272;2023-07-20T05:13:32;13.70;;;9.20;;
77430;SDS011;66498;48.564;19.272;2023-07-20T05:15:58;18.10;;;9.02;;
77430;SDS011;66498;48.564;19.272;2023-07-20T05:18:23;15.40;;;9.13;;
77430;SDS011;66498;48.564;19.272;2023-07-20T05:20:49;13.02;;;8.95;;
77430;SDS011;66498;48.564;19.272;2023-07-20T05:23:16;17.17;;;8.70;;
77430;SDS011;66498;48.564;19.272;2023-07-20T05:25:43;19.75;;;9.00;;
77430;SDS011;66498;48.564;19.272;2023-07-20T05:28:09;9.68;;;7.93;;
77430;SDS011;66498;48.564;19.272;2023-07-20T05:30:34;14.10;;;8.13;;
77430;SDS011;66498;48.564;19.272;2023-07-20T05:33:00;10.75;;;7.18;;
77430;SDS011;66498;48.564;19.272;2023-07-20T05:35:26;10.60;;;7.25;;
77430;SDS011;66498;48.564;19.272;2023-07-20T05:37:51;9.85;;;7.18;;
77430;SDS011;66498;48.564;19.272;2023-07-20T05:40:17;10.73;;;6.65;;
77430;SDS011;66498;48.564;19.272;2023-07-20T05:42:47;10.40;;;6.65;;
77430;SDS011;66498;48.564;19.272;2023-07-20T05:45:14;10.05;;;6.60;;
77430;SDS011;66498;48.564;19.272;2023-07-20T05:47:41;10.18;;;6.18;;
77430;SDS011;66498;48.564;19.272;2023-07-20T05:50:07;9.85;;;6.57;;
77430;SDS011;66498;48.564;19.272;2023-07-20T05:52:32;9.77;;;6.00;;
77430;SDS011;66498;48.564;19.272;2023-07-20T05:54:58;8.10;;;5.63;;
77430;SDS011;66498;48.564;19.272;2023-07-20T05:57:23;9.23;;;6.10;;
77430;SDS011;66498;48.564;19.272;2023-07-20T05:59:49;7.68;;;5.63;;
77430;SDS011;66498;48.564;19.272;2023-07-20T06:02:15;10.52;;;5.53;;
77430;SDS011;66498;48.564;19.272;2023-07-20T06:04:41;10.82;;;6.28;;
77430;SDS011;66498;48.564;19.272;2023-07-20T06:07:06;11.27;;;6.80;;
77430;SDS011;66498;48.564;19.272;2023-07-20T06:09:35;9.60;;;5.88;;
77430;SDS011;66498;48.564;19.272;2023-07-20T06:12:01;9.95;;;5.65;;
77430;SDS011;66498;48.564;19.272;2023-07-20T06:14:26;8.60;;;5.95;;
77430;SDS011;66498;48.564;19.272;2023-07-20T06:16:52;9.38;;;5.90;;
77430;SDS011;66498;48.564;19.272;2023-07-20T06:19:17;9.55;;;6.22;;
77430;SDS011;66498;48.564;19.272;2023-07-20T06:21:44;11.55;;;6.65;;
77430;SDS011;66498;48.564;19.272;2023-07-20T06:24:09;11.48;;;7.07;;
77430;SDS011;66498;48.564;19.272;2023-07-20T06:26:35;8.80;;;6.00;;
77430;SDS011;66498;48.564;19.272;2023-07-20T06:29:04;10.43;;;6.28;;
77430;SDS011;66498;48.564;19.272;2023-07-20T06:31:31;13.02;;;6.45;;
77430;SDS011;66498;48.564;19.272;2023-07-20T06:33:57;14.38;;;8.18;;
77430;SDS011;66498;48.564;19.272;2023-07-20T06:36:24;12.98;;;7.78;;
77430;SDS011;66498;48.564;19.272;2023-07-20T06:38:51;10.55;;;8.10;;
77430;SDS011;66498;48.564;19.272;2023-07-20T06:41:17;12.05;;;8.20;;
77430;SDS011;66498;48.564;19.272;2023-07-20T06:43:51;15.02;;;8.02;;
77430;SDS011;66498;48.564;19.272;2023-07-20T06:46:17;12.82;;;7.47;;
77430;SDS011;66498;48.564;19.272;2023-07-20T06:48:43;13.38;;;7.53;;
77430;SDS011;66498;48.564;19.272;2023-07-20T06:51:08;9.93;;;6.65;;
77430;SDS011;66498;48.564;19.272;2023-07-20T06:53:34;11.52;;;5.95;;
77430;SDS011;66498;48.564;19.272;2023-07-20T06:55:59;11.15;;;6.78;;
77430;SDS011;66498;48.564;19.272;2023-07-20T06:58:25;10.63;;;6.28;;
77430;SDS011;66498;48.564;19.272;2023-07-20T07:00:51;10.48;;;5.85;;
77430;SDS011;66498;48.564;19.272;2023-07-20T07:03:16;8.57;;;6.22;;
77430;SDS011;66498;48.564;19.272;2023-07-20T07:05:43;8.13;;;4.95;;
77430;SDS011;66498;48.564;19.272;2023-07-20T07:08:10;8.68;;;5.28;;
77430;SDS011;66498;48.564;19.272;2023-07-20T07:10:36;7.45;;;5.43;;
77430;SDS011;66498;48.564;19.272;2023-07-20T07:13:03;11.90;;;5.13;;
77430;SDS011;66498;48.564;19.272;2023-07-20T07:15:29;10.10;;;4.93;;
77430;SDS011;66498;48.564;19.272;2023-07-20T07:17:55;5.85;;;3.83;;
77430;SDS011;66498;48.564;19.272;2023-07-20T07:20:21;6.57;;;4.00;;
77430;SDS011;66498;48.564;19.272;2023-07-20T07:22:47;5.65;;;3.95;;
77430;SDS011;66498;48.564;19.272;2023-07-20T07:25:13;6.60;;;4.30;;
77430;SDS011;66498;48.564;19.272;2023-07-20T07:27:39;6.90;;;3.33;;
77430;SDS011;66498;48.564;19.272;2023-07-20T07:30:05;5.82;;;3.53;;
77430;SDS011;66498;48.564;19.272;2023-07-20T07:32:31;8.50;;;3.92;;
77430;SDS011;66498;48.564;19.272;2023-07-20T07:34:56;7.82;;;3.67;;
77430;SDS011;66498;48.564;19.272;2023-07-20T07:37:23;7.22;;;3.50;;
77430;SDS011;66498;48.564;19.272;2023-07-20T07:39:49;4.72;;;3.60;;
77430;SDS011;66498;48.564;19.272;2023-07-20T07:42:15;8.60;;;4.00;;
77430;SDS011;66498;48.564;19.272;2023-07-20T07:44:40;6.60;;;3.75;;
77430;SDS011;66498;48.564;19.272;2023-07-20T07:47:09;5.65;;;3.58;;
77430;SDS011;66498;48.564;19.272;2023-07-20T07:49:35;6.30;;;4.03;;
77430;SDS011;66498;48.564;19.272;2023-07-20T07:52:00;5.78;;;3.50;;
77430;SDS011;66498;48.564;19.272;2023-07-20T07:54:27;6.30;;;3.28;;
77430;SDS011;66498;48.564;19.272;2023-07-20T07:56:54;4.55;;;3.10;;
77430;SDS011;66498;48.564;19.272;2023-07-20T07:59:19;3.70;;;2.67;;
77430;SDS011;66498;48.564;19.272;2023-07-20T08:01:45;4.15;;;3.05;;
77430;SDS011;66498;48.564;19.272;2023-07-20T08:04:10;5.80;;;3.13;;
77430;SDS011;66498;48.564;19.272;2023-07-20T08:06:36;5.22;;;2.63;;
77430;SDS011;66498;48.564;19.272;2023-07-20T08:09:01;5.35;;;2.47;;
77430;SDS011;66498;48.564;19.272;2023-07-20T08:11:28;4.75;;;2.80;;
77430;SDS011;66498;48.564;19.272;2023-07-20T08:13:56;4.22;;;2.72;;
77430;SDS011;66498;48.564;19.272;2023-07-20T08:16:22;4.57;;;2.50;;
77430;SDS011;66498;48.564;19.272;2023-07-20T08:18:47;5.32;;;2.45;;
77430;SDS011;66498;48.564;19.272;2023-07-20T08:21:13;4.05;;;2.72;;
77430;SDS011;66498;48.564;19.272;2023-07-20T08:23:38;4.38;;;2.70;;
77430;SDS011;66498;48.564;19.272;2023-07-20T08:26:04;4.03;;;2.05;;
77430;SDS011;66498;48.564;19.272;2023-07-20T08:28:29;4.22;;;2.28;;
77430;SDS011;66498;48.564;19.272;2023-07-20T08:30:55;10.68;;;2.58;;
77430;SDS011;66498;48.564;19.272;2023-07-20T08:33:20;3.72;;;2.13;;
77430;SDS011;66498;48.564;19.272;2023-07-20T08:35:46;3.00;;;2.05;;
77430;SDS011;66498;48.564;19.272;2023-07-20T08:38:12;4.47;;;2.60;;
77430;SDS011;66498;48.564;19.272;2023-07-20T08:40:42;4.60;;;2.40;;
77430;SDS011;66498;48.564;19.272;2023-07-20T08:43:12;4.22;;;2.50;;
77430;SDS011;66498;48.564;19.272;2023-07-20T08:45:39;4.57;;;2.40;;
77430;SDS011;66498;48.564;19.272;2023-07-20T08:48:05;3.15;;;2.33;;
77430;SDS011;66498;48.564;19.272;2023-07-20T08:50:32;4.18;;;2.50;;
77430;SDS011;66498;48.564;19.272;2023-07-20T08:52:59;7.75;;;2.72;;
77430;SDS011;66498;48.564;19.272;2023-07-20T08:55:26;3.78;;;2.47;;
77430;SDS011;66498;48.564;19.272;2023-07-20T08:57:55;12.55;;;2.63;;
77430;SDS011;66498;48.564;19.272;2023-07-20T09:00:23;4.40;;;2.60;;
77430;SDS011;66498;48.564;19.272;2023-07-20T09:02:50;3.65;;;2.10;;
77430;SDS011;66498;48.564;19.272;2023-07-20T09:05:18;5.07;;;2.63;;
77430;SDS011;66498;48.564;19.272;2023-07-20T09:07:45;2.95;;;2.25;;
77430;SDS011;66498;48.564;19.272;2023-07-20T09:10:11;5.57;;;2.60;;
77430;SDS011;66498;48.564;19.272;2023-07-20T09:12:38;4.20;;;2.60;;
77430;SDS011;66498;48.564;19.272;2023-07-20T09:15:05;4.38;;;2.40;;
77430;SDS011;66498;48.564;19.272;2023-07-20T09:17:32;2.38;;;1.95;;
77430;SDS011;66498;48.564;19.272;2023-07-20T09:19:58;6.13;;;2.63;;
77430;SDS011;66498;48.564;19.272;2023-07-20T09:22:30;3.50;;;2.50;;
77430;SDS011;66498;48.564;19.272;2023-07-20T09:24:57;2.83;;;1.75;;
77430;SDS011;66498;48.564;19.272;2023-07-20T09:27:36;4.70;;;2.10;;
77430;SDS011;66498;48.564;19.272;2023-07-20T09:30:06;3.00;;;1.70;;
77430;SDS011;66498;48.564;19.272;2023-07-20T09:35:18;2.10;;;1.50;;
77430;SDS011;66498;48.564;19.272;2023-07-20T09:37:49;3.28;;;2.05;;
77430;SDS011;66498;48.564;19.272;2023-07-20T09:40:17;3.28;;;2.33;;
77430;SDS011;66498;48.564;19.272;2023-07-20T09:42:44;3.05;;;1.95;;
77430;SDS011;66498;48.564;19.272;2023-07-20T09:45:10;6.05;;;1.90;;
77430;SDS011;66498;48.564;19.272;2023-07-20T09:47:37;2.22;;;1.63;;
77430;SDS011;66498;48.564;19.272;2023-07-20T09:50:03;1.90;;;1.63;;
77430;SDS011;66498;48.564;19.272;2023-07-20T09:52:41;3.30;;;1.80;;
77430;SDS011;66498;48.564;19.272;2023-07-20T09:55:09;3.22;;;1.90;;
77430;SDS011;66498;48.564;19.272;2023-07-20T09:57:37;3.63;;;2.00;;
77430;SDS011;66498;48.564;19.272;2023-07-20T10:00:04;3.20;;;2.00;;
77430;SDS011;66498;48.564;19.272;2023-07-20T10:02:40;3.22;;;2.33;;
77430;SDS011;66498;48.564;19.272;2023-07-20T10:05:10;2.13;;;1.42;;
77430;SDS011;66498;48.564;19.272;2023-07-20T10:07:40;2.85;;;2.20;;
77430;SDS011;66498;48.564;19.272;2023-07-20T10:10:13;4.32;;;2.53;;
77430;SDS011;66498;48.564;19.272;2023-07-20T10:12:39;5.20;;;1.85;;
77430;SDS011;66498;48.564;19.272;2023-07-20T10:17:58;3.33;;;2.17;;
77430;SDS011;66498;48.564;19.272;2023-07-20T10:20:29;2.78;;;1.80;;
77430;SDS011;66498;48.564;19.272;2023-07-20T10:22:57;3.10;;;2.17;;
77430;SDS011;66498;48.564;19.272;2023-07-20T10:25:24;2.40;;;1.73;;
77430;SDS011;66498;48.564;19.272;2023-07-20T10:27:50;4.53;;;2.17;;
77430;SDS011;66498;48.564;19.272;2023-07-20T10:30:17;3.40;;;2.00;;
77430;SDS011;66498;48.564;19.272;2023-07-20T10:32:43;4.72;;;2.20;;
77430;SDS011;66498;48.564;19.272;2023-07-20T10:35:16;2.97;;;1.92;;
77430;SDS011;66498;48.564;19.272;2023-07-20T10:40:24;2.88;;;1.80;;
77430;SDS011;66498;48.564;19.272;2023-07-20T10:43:06;3.67;;;1.95;;
77430;SDS011;66498;48.564;19.272;2023-07-20T10:48:27;2.60;;;1.83;;
77430;SDS011;66498;48.564;19.272;2023-07-20T10:53:57;5.18;;;2.00;;
77430;SDS011;66498;48.564;19.272;2023-07-20T10:56:25;3.15;;;2.00;;
77430;SDS011;66498;48.564;19.272;2023-07-20T10:58:59;2.17;;;1.70;;
77430;SDS011;66498;48.564;19.272;2023-07-20T11:01:29;5.07;;;2.17;;
77430;SDS011;66498;48.564;19.272;2023-07-20T11:03:58;3.55;;;1.88;;
77430;SDS011;66498;48.564;19.272;2023-07-20T11:09:07;3.72;;;2.10;;
77430;SDS011;66498;48.564;19.272;2023-07-20T11:11:39;2.10;;;1.70;;
77430;SDS011;66498;48.564;19.272;2023-07-20T11:14:06;4.88;;;2.17;;
77430;SDS011;66498;48.564;19.272;2023-07-20T11:16:34;1.70;;;1.60;;
77430;SDS011;66498;48.564;19.272;2023-07-20T11:19:04;3.63;;;2.10;;
77430;SDS011;66498;48.564;19.272;2023-07-20T11:21:40;2.28;;;1.70;;
77430;SDS011;66498;48.564;19.272;2023-07-20T11:24:07;1.90;;;1.60;;
77430;SDS011;66498;48.564;19.272;2023-07-20T11:26:41;2.95;;;1.80;;
77430;SDS011;66498;48.564;19.272;2023-07-20T11:31:40;3.38;;;1.90;;
77430;SDS011;66498;48.564;19.272;2023-07-20T11:34:14;4.10;;;1.90;;
77430;SDS011;66498;48.564;19.272;2023-07-20T11:36:41;2.65;;;1.92;;
77430;SDS011;66498;48.564;19.272;2023-07-20T11:39:08;3.03;;;1.88;;
77430;SDS011;66498;48.564;19.272;2023-07-20T11:41:36;2.80;;;1.80;;
77430;SDS011;66498;48.564;19.272;2023-07-20T11:44:04;2.40;;;1.50;;
77430;SDS011;66498;48.564;19.272;2023-07-20T11:46:31;3.58;;;1.70;;
77430;SDS011;66498;48.564;19.272;2023-07-20T11:48:58;2.30;;;1.60;;
77430;SDS011;66498;48.564;19.272;2023-07-20T11:51:30;3.22;;;2.03;;
77430;SDS011;66498;48.564;19.272;2023-07-20T11:53:57;6.05;;;2.13;;
77430;SDS011;66498;48.564;19.272;2023-07-20T11:56:24;1.70;;;1.50;;
77430;SDS011;66498;48.564;19.272;2023-07-20T11:58:53;1.88;;;1.38;;
77430;SDS011;66498;48.564;19.272;2023-07-20T12:01:21;3.17;;;2.13;;
77430;SDS011;66498;48.564;19.272;2023-07-20T12:03:48;3.55;;;1.88;;
77430;SDS011;66498;48.564;19.272;2023-07-20T12:06:15;2.85;;;1.50;;
77430;SDS011;66498;48.564;19.272;2023-07-20T12:08:41;2.15;;;1.20;;
77430;SDS011;66498;48.564;19.272;2023-07-20T12:11:08;2.70;;;1.70;;
77430;SDS011;66498;48.564;19.272;2023-07-20T12:13:37;2.22;;;1.70;;
77430;SDS011;66498;48.564;19.272;2023-07-20T12:16:13;4.90;;;2.00;;
77430;SDS011;66498;48.564;19.272;2023-07-20T12:18:41;2.63;;;1.98;;
77430;SDS011;66498;48.564;19.272;2023-07-20T12:21:07;4.93;;;1.90;;
77430;SDS011;66498;48.564;19.272;2023-07-20T12:23:37;2.65;;;1.90;;
77430;SDS011;66498;48.564;19.272;2023-07-20T12:26:09;4.75;;;1.90;;
77430;SDS011;66498;48.564;19.272;2023-07-20T12:28:38;1.85;;;1.55;;
77430;SDS011;66498;48.564;19.272;2023-07-20T12:31:07;2.35;;;1.70;;
77430;SDS011;66498;48.564;19.272;2023-07-20T12:33:34;2.85;;;2.00;;
77430;SDS011;66498;48.564;19.272;2023-07-20T12:36:00;2.63;;;1.50;;
77430;SDS011;66498;48.564;19.272;2023-07-20T12:38:26;2.28;;;1.70;;
77430;SDS011;66498;48.564;19.272;2023-07-20T12:40:56;3.67;;;1.50;;
77430;SDS011;66498;48.564;19.272;2023-07-20T12:43:22;3.10;;;2.15;;
77430;SDS011;66498;48.564;19.272;2023-07-20T12:45:48;3.80;;;2.13;;
77430;SDS011;66498;48.564;19.272;2023-07-20T12:48:13;3.75;;;1.90;;
77430;SDS011;66498;48.564;19.272;2023-07-20T12:50:39;2.72;;;1.70;;
77430;SDS011;66498;48.564;19.272;2023-07-20T12:53:05;1.50;;;1.40;;
77430;SDS011;66498;48.564;19.272;2023-07-20T12:55:31;2.05;;;1.73;;
77430;SDS011;66498;48.564;19.272;2023-07-20T12:57:56;1.98;;;1.70;;
77430;SDS011;66498;48.564;19.272;2023-07-20T13:00:22;3.22;;;1.77;;
77430;SDS011;66498;48.564;19.272;2023-07-20T13:02:48;3.28;;;1.80;;
77430;SDS011;66498;48.564;19.272;2023-07-20T13:05:14;3.38;;;1.58;;
77430;SDS011;66498;48.564;19.272;2023-07-20T13:07:42;2.30;;;1.63;;
77430;SDS011;66498;48.564;19.272;2023-07-20T13:10:08;2.25;;;1.70;;
77430;SDS011;66498;48.564;19.272;2023-07-20T13:12:36;2.13;;;1.75;;
77430;SDS011;66498;48.564;19.272;2023-07-20T13:15:03;2.50;;;1.60;;
77430;SDS011;66498;48.564;19.272;2023-07-20T13:17:35;2.97;;;1.60;;
77430;SDS011;66498;48.564;19.272;2023-07-20T13:20:03;1.75;;;1.23;;
77430;SDS011;66498;48.564;19.272;2023-07-20T13:22:31;2.03;;;1.30;;
77430;SDS011;66498;48.564;19.272;2023-07-20T13:24:57;3.88;;;1.73;;
77430;SDS011;66498;48.564;19.272;2023-07-20T13:27:23;2.58;;;1.70;;
77430;SDS011;66498;48.564;19.272;2023-07-20T13:29:50;4.50;;;1.63;;
77430;SDS011;66498;48.564;19.272;2023-07-20T13:32:16;2.85;;;1.85;;
77430;SDS011;66498;48.564;19.272;2023-07-20T13:34:46;2.92;;;1.90;;
77430;SDS011;66498;48.564;19.272;2023-07-20T13:37:12;2.35;;;1.58;;
77430;SDS011;66498;48.564;19.272;2023-07-20T13:39:38;2.25;;;1.60;;
77430;SDS011;66498;48.564;19.272;2023-07-20T13:42:04;1.80;;;1.60;;
77430;SDS011;66498;48.564;19.272;2023-07-20T13:44:33;2.28;;;1.75;;
77430;SDS011;66498;48.564;19.272;2023-07-20T13:47:00;1.90;;;1.42;;
77430;SDS011;66498;48.564;19.272;2023-07-20T13:49:28;1.77;;;1.60;;
77430;SDS011;66498;48.564;19.272;2023-07-20T13:51:54;2.30;;;1.50;;
77430;SDS011;66498;48.564;19.272;2023-07-20T13:54:20;1.52;;;1.40;;
77430;SDS011;66498;48.564;19.272;2023-07-20T13:56:46;1.88;;;1.70;;
77430;SDS011;66498;48.564;19.272;2023-07-20T13:59:11;3.75;;;1.52;;
77430;SDS011;66498;48.564;19.272;2023-07-20T14:01:37;4.10;;;1.60;;
77430;SDS011;66498;48.564;19.272;2023-07-20T14:04:03;1.95;;;1.58;;
77430;SDS011;66498;48.564;19.272;2023-07-20T14:06:31;2.00;;;1.40;;
77430;SDS011;66498;48.564;19.272;2023-07-20T14:08:59;1.45;;;1.35;;
77430;SDS011;66498;48.564;19.272;2023-07-20T14:11:25;5.55;;;1.52;;
77430;SDS011;66498;48.564;19.272;2023-07-20T14:13:52;2.22;;;1.75;;
77430;SDS011;66498;48.564;19.272;2023-07-20T14:16:24;2.50;;;1.70;;
77430;SDS011;66498;48.564;19.272;2023-07-20T14:18:50;2.03;;;1.40;;
77430;SDS011;66498;48.564;19.272;2023-07-20T14:21:16;3.70;;;1.70;;
77430;SDS011;66498;48.564;19.272;2023-07-20T14:23:46;3.83;;;1.58;;
77430;SDS011;66498;48.564;19.272;2023-07-20T14:26:13;4.78;;;1.65;;
77430;SDS011;66498;48.564;19.272;2023-07-20T14:28:39;1.90;;;1.60;;
77430;SDS011;66498;48.564;19.272;2023-07-20T14:31:05;1.92;;;1.40;;
77430;SDS011;66498;48.564;19.272;2023-07-20T14:33:31;2.97;;;1.75;;
77430;SDS011;66498;48.564;19.272;2023-07-20T14:35:57;1.83;;;1.60;;
77430;SDS011;66498;48.564;19.272;2023-07-20T14:38:23;2.40;;;1.60;;
77430;SDS011;66498;48.564;19.272;2023-07-20T14:40:49;2.33;;;1.55;;
77430;SDS011;66498;48.564;19.272;2023-07-20T14:43:15;2.45;;;1.60;;
77430;SDS011;66498;48.564;19.272;2023-07-20T14:45:41;1.83;;;1.65;;
77430;SDS011;66498;48.564;19.272;2023-07-20T14:48:07;2.88;;;1.67;;
77430;SDS011;66498;48.564;19.272;2023-07-20T14:50:32;3.67;;;1.75;;